sensor_id;sensor_type;location;lat;lon;timestamp;temperature;humidity
70107;DHT22;57473;37.508;15.080;2023-04-15T00:01:03;12.30;53.30
70107;DHT22;57473;37.508;15.080;2023-04-15T00:03:32;12.00;54.40
70107;DHT22;57473;37.508;15.080;2023-04-15T00:06:00;11.90;54.80
70107;DHT22;57473;37.508;15.080;2023-04-15T00:08:29;11.80;55.40
70107;DHT22;57473;37.508;15.080;2023-04-15T00:10:57;11.70;56.00
70107;DHT22;57473;37.508;15.080;2023-04-15T00:13:31;11.50;56.40
70107;DHT22;57473;37.508;15.080;2023-04-15T00:16:00;11.50;56.50
70107;DHT22;57473;37.508;15.080;2023-04-15T00:18:28;11.60;56.30
70107;DHT22;57473;37.508;15.080;2023-04-15T00:20:55;11.60;56.20
70107;DHT22;57473;37.508;15.080;2023-04-15T00:23:23;11.60;56.20
70107;DHT22;57473;37.508;15.080;2023-04-15T00:25:51;11.60;56.20
70107;DHT22;57473;37.508;15.080;2023-04-15T00:28:18;11.60;56.40
70107;DHT22;57473;37.508;15.080;2023-04-15T00:30:47;11.50;56.70
70107;DHT22;57473;37.508;15.080;2023-04-15T00:33:15;11.40;57.10
70107;DHT22;57473;37.508;15.080;2023-04-15T00:35:43;11.30;57.40
70107;DHT22;57473;37.508;15.080;2023-04-15T00:38:10;11.20;57.80
70107;DHT22;57473;37.508;15.080;2023-04-15T00:40:37;11.10;58.20
70107;DHT22;57473;37.508;15.080;2023-04-15T00:43:04;11.10;58.40
70107;DHT22;57473;37.508;15.080;2023-04-15T00:45:33;11.00;58.70
70107;DHT22;57473;37.508;15.080;2023-04-15T00:48:00;11.00;58.70
70107;DHT22;57473;37.508;15.080;2023-04-15T00:50:28;11.00;59.00
70107;DHT22;57473;37.508;15.080;2023-04-15T00:52:55;11.00;59.00
70107;DHT22;57473;37.508;15.080;2023-04-15T00:55:23;11.00;59.20
70107;DHT22;57473;37.508;15.080;2023-04-15T00:57:51;11.00;59.00
70107;DHT22;57473;37.508;15.080;2023-04-15T01:00:19;11.20;57.10
70107;DHT22;57473;37.508;15.080;2023-04-15T01:02:46;11.60;56.60
70107;DHT22;57473;37.508;15.080;2023-04-15T01:05:15;11.70;55.50
70107;DHT22;57473;37.508;15.080;2023-04-15T01:07:45;11.90;54.70
70107;DHT22;57473;37.508;15.080;2023-04-15T01:10:13;12.10;53.80
70107;DHT22;57473;37.508;15.080;2023-04-15T01:12:41;12.20;53.60
70107;DHT22;57473;37.508;15.080;2023-04-15T01:15:09;12.40;53.00
70107;DHT22;57473;37.508;15.080;2023-04-15T01:17:38;12.40;52.80
70107;DHT22;57473;37.508;15.080;2023-04-15T01:20:06;12.50;52.60
70107;DHT22;57473;37.508;15.080;2023-04-15T01:22:37;12.50;52.60
70107;DHT22;57473;37.508;15.080;2023-04-15T01:25:12;12.60;52.50
70107;DHT22;57473;37.508;15.080;2023-04-15T01:27:41;12.60;52.60
70107;DHT22;57473;37.508;15.080;2023-04-15T01:30:09;12.60;52.60
70107;DHT22;57473;37.508;15.080;2023-04-15T01:32:37;12.50;52.50
70107;DHT22;57473;37.508;15.080;2023-04-15T01:35:05;12.50;52.40
70107;DHT22;57473;37.508;15.080;2023-04-15T01:37:33;12.60;52.10
70107;DHT22;57473;37.508;15.080;2023-04-15T01:40:01;12.60;51.80
70107;DHT22;57473;37.508;15.080;2023-04-15T01:42:30;12.70;51.60
70107;DHT22;57473;37.508;15.080;2023-04-15T01:44:57;12.70;51.20
70107;DHT22;57473;37.508;15.080;2023-04-15T01:47:24;12.70;51.00
70107;DHT22;57473;37.508;15.080;2023-04-15T01:49:51;12.70;50.70
70107;DHT22;57473;37.508;15.080;2023-04-15T01:52:19;12.80;50.50
70107;DHT22;57473;37.508;15.080;2023-04-15T01:54:46;12.80;49.90
70107;DHT22;57473;37.508;15.080;2023-04-15T01:57:13;12.80;49.10
70107;DHT22;57473;37.508;15.080;2023-04-15T01:59:41;12.90;48.50
70107;DHT22;57473;37.508;15.080;2023-04-15T02:02:08;12.90;48.30
70107;DHT22;57473;37.508;15.080;2023-04-15T02:04:36;12.90;48.20
70107;DHT22;57473;37.508;15.080;2023-04-15T02:07:04;12.90;47.10
70107;DHT22;57473;37.508;15.080;2023-04-15T02:09:31;13.00;46.90
70107;DHT22;57473;37.508;15.080;2023-04-15T02:11:59;13.10;46.80
70107;DHT22;57473;37.508;15.080;2023-04-15T02:14:27;13.10;46.60
70107;DHT22;57473;37.508;15.080;2023-04-15T02:16:55;13.10;46.50
70107;DHT22;57473;37.508;15.080;2023-04-15T02:19:22;13.20;46.40
70107;DHT22;57473;37.508;15.080;2023-04-15T02:21:52;13.20;46.20
70107;DHT22;57473;37.508;15.080;2023-04-15T02:24:19;13.20;46.30
70107;DHT22;57473;37.508;15.080;2023-04-15T02:26:47;13.10;46.40
70107;DHT22;57473;37.508;15.080;2023-04-15T02:29:14;13.10;46.70
70107;DHT22;57473;37.508;15.080;2023-04-15T02:31:41;13.10;46.80
70107;DHT22;57473;37.508;15.080;2023-04-15T02:34:09;13.10;47.10
70107;DHT22;57473;37.508;15.080;2023-04-15T02:36:37;13.10;48.70
70107;DHT22;57473;37.508;15.080;2023-04-15T02:39:05;12.70;51.40
70107;DHT22;57473;37.508;15.080;2023-04-15T02:41:33;12.50;51.90
70107;DHT22;57473;37.508;15.080;2023-04-15T02:44:02;12.40;52.10
70107;DHT22;57473;37.508;15.080;2023-04-15T02:46:30;12.40;51.10
70107;DHT22;57473;37.508;15.080;2023-04-15T02:48:57;12.50;50.40
70107;DHT22;57473;37.508;15.080;2023-04-15T02:51:29;12.50;50.30
70107;DHT22;57473;37.508;15.080;2023-04-15T02:53:58;12.60;50.20
70107;DHT22;57473;37.508;15.080;2023-04-15T02:56:25;12.60;50.20
70107;DHT22;57473;37.508;15.080;2023-04-15T02:58:53;12.60;50.10
70107;DHT22;57473;37.508;15.080;2023-04-15T03:01:22;12.60;50.00
70107;DHT22;57473;37.508;15.080;2023-04-15T03:03:50;12.60;49.80
70107;DHT22;57473;37.508;15.080;2023-04-15T03:06:17;12.70;49.60
70107;DHT22;57473;37.508;15.080;2023-04-15T03:08:44;12.80;49.40
70107;DHT22;57473;37.508;15.080;2023-04-15T03:11:13;12.80;49.60
70107;DHT22;57473;37.508;15.080;2023-04-15T03:13:41;12.80;49.70
70107;DHT22;57473;37.508;15.080;2023-04-15T03:16:20;12.80;49.70
70107;DHT22;57473;37.508;15.080;2023-04-15T03:18:47;12.80;49.70
70107;DHT22;57473;37.508;15.080;2023-04-15T03:21:15;12.80;49.70
70107;DHT22;57473;37.508;15.080;2023-04-15T03:23:44;12.80;49.80
70107;DHT22;57473;37.508;15.080;2023-04-15T03:26:26;12.80;50.20
70107;DHT22;57473;37.508;15.080;2023-04-15T03:28:57;12.70;50.70
70107;DHT22;57473;37.508;15.080;2023-04-15T03:31:26;12.70;51.10
70107;DHT22;57473;37.508;15.080;2023-04-15T03:33:53;12.60;51.80
70107;DHT22;57473;37.508;15.080;2023-04-15T03:36:20;12.50;52.10
70107;DHT22;57473;37.508;15.080;2023-04-15T03:38:48;12.50;52.40
70107;DHT22;57473;37.508;15.080;2023-04-15T03:41:16;12.50;52.10
70107;DHT22;57473;37.508;15.080;2023-04-15T03:43:43;12.50;51.90
70107;DHT22;57473;37.508;15.080;2023-04-15T03:46:10;12.50;51.70
70107;DHT22;57473;37.508;15.080;2023-04-15T03:48:38;12.50;50.80
70107;DHT22;57473;37.508;15.080;2023-04-15T03:51:05;12.50;50.50
70107;DHT22;57473;37.508;15.080;2023-04-15T03:53:32;12.50;50.50
70107;DHT22;57473;37.508;15.080;2023-04-15T03:55:59;12.60;50.60
70107;DHT22;57473;37.508;15.080;2023-04-15T03:58:27;12.50;50.80
70107;DHT22;57473;37.508;15.080;2023-04-15T04:00:54;12.50;51.20
70107;DHT22;57473;37.508;15.080;2023-04-15T04:03:22;12.40;51.40
70107;DHT22;57473;37.508;15.080;2023-04-15T04:05:50;12.40;51.60
70107;DHT22;57473;37.508;15.080;2023-04-15T04:08:17;12.30;52.00
70107;DHT22;57473;37.508;15.080;2023-04-15T04:10:45;12.30;52.20
70107;DHT22;57473;37.508;15.080;2023-04-15T04:13:13;12.30;52.20
70107;DHT22;57473;37.508;15.080;2023-04-15T04:15:40;12.30;52.40
70107;DHT22;57473;37.508;15.080;2023-04-15T04:18:08;12.30;52.40
70107;DHT22;57473;37.508;15.080;2023-04-15T04:20:35;12.30;52.50
70107;DHT22;57473;37.508;15.080;2023-04-15T04:23:02;12.20;52.50
70107;DHT22;57473;37.508;15.080;2023-04-15T04:25:30;12.20;52.70
70107;DHT22;57473;37.508;15.080;2023-04-15T04:27:58;12.10;52.90
70107;DHT22;57473;37.508;15.080;2023-04-15T04:30:26;12.10;53.10
70107;DHT22;57473;37.508;15.080;2023-04-15T04:32:53;12.10;53.20
70107;DHT22;57473;37.508;15.080;2023-04-15T04:35:21;12.10;53.20
70107;DHT22;57473;37.508;15.080;2023-04-15T04:37:48;12.00;53.20
70107;DHT22;57473;37.508;15.080;2023-04-15T04:40:17;12.00;53.20
70107;DHT22;57473;37.508;15.080;2023-04-15T04:42:44;12.00;53.20
70107;DHT22;57473;37.508;15.080;2023-04-15T04:45:11;12.10;53.10
70107;DHT22;57473;37.508;15.080;2023-04-15T04:47:39;12.10;53.00
70107;DHT22;57473;37.508;15.080;2023-04-15T04:50:07;12.20;53.10
70107;DHT22;57473;37.508;15.080;2023-04-15T04:52:35;12.20;53.10
70107;DHT22;57473;37.508;15.080;2023-04-15T04:55:03;12.20;53.20
70107;DHT22;57473;37.508;15.080;2023-04-15T04:57:30;12.30;53.20
70107;DHT22;57473;37.508;15.080;2023-04-15T04:59:57;12.30;53.40
70107;DHT22;57473;37.508;15.080;2023-04-15T05:02:24;12.40;53.20
70107;DHT22;57473;37.508;15.080;2023-04-15T05:04:53;12.40;53.10
70107;DHT22;57473;37.508;15.080;2023-04-15T05:07:21;12.50;53.00
70107;DHT22;57473;37.508;15.080;2023-04-15T05:09:48;12.60;52.60
70107;DHT22;57473;37.508;15.080;2023-04-15T05:12:15;12.70;52.20
70107;DHT22;57473;37.508;15.080;2023-04-15T05:14:44;12.80;52.10
70107;DHT22;57473;37.508;15.080;2023-04-15T05:17:12;12.80;51.90
70107;DHT22;57473;37.508;15.080;2023-04-15T05:19:40;12.90;51.80
70107;DHT22;57473;37.508;15.080;2023-04-15T05:22:07;13.00;51.70
70107;DHT22;57473;37.508;15.080;2023-04-15T05:24:34;13.10;51.80
70107;DHT22;57473;37.508;15.080;2023-04-15T05:27:02;13.20;51.70
70107;DHT22;57473;37.508;15.080;2023-04-15T05:29:29;13.30;51.80
70107;DHT22;57473;37.508;15.080;2023-04-15T05:31:57;13.40;51.70
70107;DHT22;57473;37.508;15.080;2023-04-15T05:34:24;13.50;51.90
70107;DHT22;57473;37.508;15.080;2023-04-15T05:36:51;13.60;52.00
70107;DHT22;57473;37.508;15.080;2023-04-15T05:39:19;13.60;52.20
70107;DHT22;57473;37.508;15.080;2023-04-15T05:41:46;13.60;52.20
70107;DHT22;57473;37.508;15.080;2023-04-15T05:44:13;13.70;51.90
70107;DHT22;57473;37.508;15.080;2023-04-15T05:46:41;13.80;51.50
70107;DHT22;57473;37.508;15.080;2023-04-15T05:49:09;13.90;50.90
70107;DHT22;57473;37.508;15.080;2023-04-15T05:51:36;14.00;50.40
70107;DHT22;57473;37.508;15.080;2023-04-15T05:54:03;14.20;49.60
70107;DHT22;57473;37.508;15.080;2023-04-15T05:56:31;14.20;49.50
70107;DHT22;57473;37.508;15.080;2023-04-15T05:58:59;14.30;49.10
70107;DHT22;57473;37.508;15.080;2023-04-15T06:01:27;14.30;49.00
70107;DHT22;57473;37.508;15.080;2023-04-15T06:03:54;14.40;49.10
70107;DHT22;57473;37.508;15.080;2023-04-15T06:06:22;14.50;49.10
70107;DHT22;57473;37.508;15.080;2023-04-15T06:08:49;14.50;49.10
70107;DHT22;57473;37.508;15.080;2023-04-15T06:11:17;14.60;49.10
70107;DHT22;57473;37.508;15.080;2023-04-15T06:13:44;14.70;49.20
70107;DHT22;57473;37.508;15.080;2023-04-15T06:16:11;14.80;49.20
70107;DHT22;57473;37.508;15.080;2023-04-15T06:18:39;14.90;49.30
70107;DHT22;57473;37.508;15.080;2023-04-15T06:21:06;14.90;49.30
70107;DHT22;57473;37.508;15.080;2023-04-15T06:23:34;15.00;49.30
70107;DHT22;57473;37.508;15.080;2023-04-15T06:26:02;15.20;48.50
70107;DHT22;57473;37.508;15.080;2023-04-15T06:28:30;15.20;48.60
70107;DHT22;57473;37.508;15.080;2023-04-15T06:30:57;15.20;48.60
70107;DHT22;57473;37.508;15.080;2023-04-15T06:33:24;15.20;48.60
70107;DHT22;57473;37.508;15.080;2023-04-15T06:35:52;15.10;48.80
70107;DHT22;57473;37.508;15.080;2023-04-15T06:38:19;15.20;48.50
70107;DHT22;57473;37.508;15.080;2023-04-15T06:40:46;15.20;48.60
70107;DHT22;57473;37.508;15.080;2023-04-15T06:43:14;15.40;48.50
70107;DHT22;57473;37.508;15.080;2023-04-15T06:45:41;15.50;48.60
70107;DHT22;57473;37.508;15.080;2023-04-15T06:48:08;15.80;48.20
70107;DHT22;57473;37.508;15.080;2023-04-15T06:50:36;16.00;47.40
70107;DHT22;57473;37.508;15.080;2023-04-15T06:53:03;16.10;47.50
70107;DHT22;57473;37.508;15.080;2023-04-15T06:55:30;16.20;47.70
70107;DHT22;57473;37.508;15.080;2023-04-15T06:57:58;16.40;47.70
70107;DHT22;57473;37.508;15.080;2023-04-15T07:00:25;16.60;47.20
70107;DHT22;57473;37.508;15.080;2023-04-15T07:02:54;16.80;47.30
70107;DHT22;57473;37.508;15.080;2023-04-15T07:05:22;16.90;48.30
70107;DHT22;57473;37.508;15.080;2023-04-15T07:07:49;16.90;49.10
70107;DHT22;57473;37.508;15.080;2023-04-15T07:10:17;16.90;49.10
70107;DHT22;57473;37.508;15.080;2023-04-15T07:12:44;16.80;49.40
70107;DHT22;57473;37.508;15.080;2023-04-15T07:15:12;16.60;49.50
70107;DHT22;57473;37.508;15.080;2023-04-15T07:17:40;16.60;49.30
70107;DHT22;57473;37.508;15.080;2023-04-15T07:20:09;16.70;49.60
70107;DHT22;57473;37.508;15.080;2023-04-15T07:22:37;16.80;50.20
70107;DHT22;57473;37.508;15.080;2023-04-15T07:25:04;16.90;50.10
70107;DHT22;57473;37.508;15.080;2023-04-15T07:27:32;17.00;50.20
70107;DHT22;57473;37.508;15.080;2023-04-15T07:29:59;17.10;50.00
70107;DHT22;57473;37.508;15.080;2023-04-15T07:32:27;17.10;49.90
70107;DHT22;57473;37.508;15.080;2023-04-15T07:34:54;17.10;50.30
70107;DHT22;57473;37.508;15.080;2023-04-15T07:37:21;17.20;50.80
70107;DHT22;57473;37.508;15.080;2023-04-15T07:39:49;17.30;51.00
70107;DHT22;57473;37.508;15.080;2023-04-15T07:42:16;17.30;51.30
70107;DHT22;57473;37.508;15.080;2023-04-15T07:44:43;17.30;51.70
70107;DHT22;57473;37.508;15.080;2023-04-15T07:47:11;17.20;51.60
70107;DHT22;57473;37.508;15.080;2023-04-15T07:49:38;17.30;51.50
70107;DHT22;57473;37.508;15.080;2023-04-15T07:52:05;17.30;50.90
70107;DHT22;57473;37.508;15.080;2023-04-15T07:54:33;17.40;50.90
70107;DHT22;57473;37.508;15.080;2023-04-15T07:57:00;17.60;51.00
70107;DHT22;57473;37.508;15.080;2023-04-15T07:59:28;17.70;51.10
70107;DHT22;57473;37.508;15.080;2023-04-15T08:01:56;18.00;51.00
70107;DHT22;57473;37.508;15.080;2023-04-15T08:04:24;18.20;50.90
70107;DHT22;57473;37.508;15.080;2023-04-15T08:06:52;18.50;50.40
70107;DHT22;57473;37.508;15.080;2023-04-15T08:09:20;18.70;50.20
70107;DHT22;57473;37.508;15.080;2023-04-15T08:11:48;18.80;50.90
70107;DHT22;57473;37.508;15.080;2023-04-15T08:14:16;19.10;50.20
70107;DHT22;57473;37.508;15.080;2023-04-15T08:16:44;19.20;49.60
70107;DHT22;57473;37.508;15.080;2023-04-15T08:19:11;19.00;49.90
70107;DHT22;57473;37.508;15.080;2023-04-15T08:21:38;18.70;50.70
70107;DHT22;57473;37.508;15.080;2023-04-15T08:24:06;18.30;51.50
70107;DHT22;57473;37.508;15.080;2023-04-15T08:26:34;18.20;51.90
70107;DHT22;57473;37.508;15.080;2023-04-15T08:29:01;18.10;52.20
70107;DHT22;57473;37.508;15.080;2023-04-15T08:31:29;18.00;52.30
70107;DHT22;57473;37.508;15.080;2023-04-15T08:33:56;17.90;52.30
70107;DHT22;57473;37.508;15.080;2023-04-15T08:36:24;18.00;52.10
70107;DHT22;57473;37.508;15.080;2023-04-15T08:38:59;18.20;52.00
70107;DHT22;57473;37.508;15.080;2023-04-15T08:41:33;18.60;51.30
70107;DHT22;57473;37.508;15.080;2023-04-15T08:44:03;18.90;50.30
70107;DHT22;57473;37.508;15.080;2023-04-15T08:46:32;19.00;50.10
70107;DHT22;57473;37.508;15.080;2023-04-15T08:49:03;19.00;49.90
70107;DHT22;57473;37.508;15.080;2023-04-15T08:51:31;18.90;50.40
70107;DHT22;57473;37.508;15.080;2023-04-15T08:54:00;19.00;50.20
70107;DHT22;57473;37.508;15.080;2023-04-15T08:56:32;19.00;50.40
70107;DHT22;57473;37.508;15.080;2023-04-15T08:59:00;18.90;50.80
70107;DHT22;57473;37.508;15.080;2023-04-15T09:01:28;18.90;50.70
70107;DHT22;57473;37.508;15.080;2023-04-15T09:03:56;18.90;50.70
70107;DHT22;57473;37.508;15.080;2023-04-15T09:06:25;19.00;50.20
70107;DHT22;57473;37.508;15.080;2023-04-15T09:08:53;19.20;49.50
70107;DHT22;57473;37.508;15.080;2023-04-15T09:11:21;19.20;49.60
70107;DHT22;57473;37.508;15.080;2023-04-15T09:13:49;19.20;49.90
70107;DHT22;57473;37.508;15.080;2023-04-15T09:16:16;19.20;50.10
70107;DHT22;57473;37.508;15.080;2023-04-15T09:18:44;19.20;50.30
70107;DHT22;57473;37.508;15.080;2023-04-15T09:21:14;19.30;49.80
70107;DHT22;57473;37.508;15.080;2023-04-15T09:23:58;19.40;49.50
70107;DHT22;57473;37.508;15.080;2023-04-15T09:26:35;19.50;49.10
70107;DHT22;57473;37.508;15.080;2023-04-15T09:29:07;19.90;48.60
70107;DHT22;57473;37.508;15.080;2023-04-15T09:31:36;20.30;47.90
70107;DHT22;57473;37.508;15.080;2023-04-15T09:34:04;20.50;47.70
70107;DHT22;57473;37.508;15.080;2023-04-15T09:37:00;20.40;47.70
70107;DHT22;57473;37.508;15.080;2023-04-15T09:39:52;20.40;47.80
70107;DHT22;57473;37.508;15.080;2023-04-15T09:42:20;20.40;47.30
70107;DHT22;57473;37.508;15.080;2023-04-15T09:44:50;20.00;48.10
70107;DHT22;57473;37.508;15.080;2023-04-15T09:49:56;20.40;47.60
70107;DHT22;57473;37.508;15.080;2023-04-15T09:52:24;20.70;46.80
70107;DHT22;57473;37.508;15.080;2023-04-15T09:54:53;20.60;47.10
70107;DHT22;57473;37.508;15.080;2023-04-15T09:57:22;20.70;47.10
70107;DHT22;57473;37.508;15.080;2023-04-15T09:59:50;21.00;46.30
70107;DHT22;57473;37.508;15.080;2023-04-15T10:02:19;21.20;46.00
70107;DHT22;57473;37.508;15.080;2023-04-15T10:04:49;20.90;46.10
70107;DHT22;57473;37.508;15.080;2023-04-15T10:07:20;20.90;46.30
70107;DHT22;57473;37.508;15.080;2023-04-15T10:09:48;20.70;46.80
70107;DHT22;57473;37.508;15.080;2023-04-15T10:12:16;20.60;47.60
70107;DHT22;57473;37.508;15.080;2023-04-15T10:14:48;20.40;48.40
70107;DHT22;57473;37.508;15.080;2023-04-15T10:17:21;20.30;48.00
70107;DHT22;57473;37.508;15.080;2023-04-15T10:19:52;20.40;47.70
70107;DHT22;57473;37.508;15.080;2023-04-15T10:22:25;20.30;48.10
70107;DHT22;57473;37.508;15.080;2023-04-15T10:24:55;20.60;47.60
70107;DHT22;57473;37.508;15.080;2023-04-15T10:27:23;20.80;46.90
70107;DHT22;57473;37.508;15.080;2023-04-15T10:29:50;20.70;46.60
70107;DHT22;57473;37.508;15.080;2023-04-15T10:32:19;20.70;46.20
70107;DHT22;57473;37.508;15.080;2023-04-15T10:34:48;20.70;46.00
70107;DHT22;57473;37.508;15.080;2023-04-15T10:37:21;20.60;46.60
70107;DHT22;57473;37.508;15.080;2023-04-15T10:39:49;20.70;46.40
70107;DHT22;57473;37.508;15.080;2023-04-15T10:42:18;21.10;45.70
70107;DHT22;57473;37.508;15.080;2023-04-15T10:44:50;21.00;45.50
70107;DHT22;57473;37.508;15.080;2023-04-15T10:47:19;20.80;45.30
70107;DHT22;57473;37.508;15.080;2023-04-15T10:50:06;20.80;45.40
70107;DHT22;57473;37.508;15.080;2023-04-15T10:52:33;20.80;45.90
70107;DHT22;57473;37.508;15.080;2023-04-15T10:57:38;20.50;47.50
70107;DHT22;57473;37.508;15.080;2023-04-15T11:00:16;19.80;51.90
70107;DHT22;57473;37.508;15.080;2023-04-15T11:02:44;19.10;56.90
70107;DHT22;57473;37.508;15.080;2023-04-15T11:05:17;18.80;58.90
70107;DHT22;57473;37.508;15.080;2023-04-15T11:07:50;18.40;60.10
70107;DHT22;57473;37.508;15.080;2023-04-15T11:13:02;18.30;59.20
70107;DHT22;57473;37.508;15.080;2023-04-15T11:15:43;18.20;59.00
70107;DHT22;57473;37.508;15.080;2023-04-15T11:18:18;18.20;61.40
70107;DHT22;57473;37.508;15.080;2023-04-15T11:23:32;17.70;65.00
70107;DHT22;57473;37.508;15.080;2023-04-15T11:26:01;17.40;65.20
70107;DHT22;57473;37.508;15.080;2023-04-15T11:28:32;17.30;66.60
70107;DHT22;57473;37.508;15.080;2023-04-15T11:33:43;17.10;63.50
70107;DHT22;57473;37.508;15.080;2023-04-15T11:36:11;17.00;63.30
70107;DHT22;57473;37.508;15.080;2023-04-15T11:38:43;16.90;60.40
70107;DHT22;57473;37.508;15.080;2023-04-15T11:41:11;17.00;59.00
70107;DHT22;57473;37.508;15.080;2023-04-15T11:43:38;17.20;58.20
70107;DHT22;57473;37.508;15.080;2023-04-15T11:46:05;17.30;58.50
70107;DHT22;57473;37.508;15.080;2023-04-15T11:48:35;17.50;57.30
70107;DHT22;57473;37.508;15.080;2023-04-15T11:51:04;17.50;58.00
70107;DHT22;57473;37.508;15.080;2023-04-15T11:53:46;17.60;58.30
70107;DHT22;57473;37.508;15.080;2023-04-15T11:56:21;17.50;58.70
70107;DHT22;57473;37.508;15.080;2023-04-15T11:58:54;17.50;58.40
70107;DHT22;57473;37.508;15.080;2023-04-15T12:01:36;17.40;59.20
70107;DHT22;57473;37.508;15.080;2023-04-15T12:04:16;17.50;58.90
70107;DHT22;57473;37.508;15.080;2023-04-15T12:06:50;17.50;59.10
70107;DHT22;57473;37.508;15.080;2023-04-15T12:09:18;17.60;58.70
70107;DHT22;57473;37.508;15.080;2023-04-15T12:11:56;18.10;57.00
70107;DHT22;57473;37.508;15.080;2023-04-15T12:14:29;18.40;56.20
70107;DHT22;57473;37.508;15.080;2023-04-15T12:17:04;18.90;55.50
70107;DHT22;57473;37.508;15.080;2023-04-15T12:19:35;19.30;54.80
70107;DHT22;57473;37.508;15.080;2023-04-15T12:22:04;19.50;54.30
70107;DHT22;57473;37.508;15.080;2023-04-15T12:24:33;19.90;54.20
70107;DHT22;57473;37.508;15.080;2023-04-15T12:27:03;20.50;52.90
70107;DHT22;57473;37.508;15.080;2023-04-15T12:29:31;20.20;53.10
70107;DHT22;57473;37.508;15.080;2023-04-15T12:37:07;19.00;54.80
70107;DHT22;57473;37.508;15.080;2023-04-15T12:39:42;18.80;55.30
70107;DHT22;57473;37.508;15.080;2023-04-15T12:42:10;18.70;55.50
70107;DHT22;57473;37.508;15.080;2023-04-15T12:44:38;18.40;56.60
70107;DHT22;57473;37.508;15.080;2023-04-15T12:47:07;18.30;57.40
70107;DHT22;57473;37.508;15.080;2023-04-15T12:49:35;18.30;57.30
70107;DHT22;57473;37.508;15.080;2023-04-15T12:52:03;18.50;56.70
70107;DHT22;57473;37.508;15.080;2023-04-15T12:54:31;18.50;56.30
70107;DHT22;57473;37.508;15.080;2023-04-15T12:56:59;18.60;53.90
70107;DHT22;57473;37.508;15.080;2023-04-15T12:59:27;18.60;53.00
70107;DHT22;57473;37.508;15.080;2023-04-15T13:01:55;18.70;53.10
70107;DHT22;57473;37.508;15.080;2023-04-15T13:04:22;19.10;52.50
70107;DHT22;57473;37.508;15.080;2023-04-15T13:06:50;19.40;51.90
70107;DHT22;57473;37.508;15.080;2023-04-15T13:09:17;19.70;51.00
70107;DHT22;57473;37.508;15.080;2023-04-15T13:11:44;20.00;49.80
70107;DHT22;57473;37.508;15.080;2023-04-15T13:14:12;20.30;49.50
70107;DHT22;57473;37.508;15.080;2023-04-15T13:16:39;20.30;48.80
70107;DHT22;57473;37.508;15.080;2023-04-15T13:19:10;20.20;49.20
70107;DHT22;57473;37.508;15.080;2023-04-15T13:21:37;20.20;49.20
70107;DHT22;57473;37.508;15.080;2023-04-15T13:24:05;19.90;49.20
70107;DHT22;57473;37.508;15.080;2023-04-15T13:26:33;19.80;50.00
70107;DHT22;57473;37.508;15.080;2023-04-15T13:29:01;19.40;51.20
70107;DHT22;57473;37.508;15.080;2023-04-15T13:31:30;19.10;52.80
70107;DHT22;57473;37.508;15.080;2023-04-15T13:33:57;18.90;55.00
70107;DHT22;57473;37.508;15.080;2023-04-15T13:36:25;18.40;61.20
70107;DHT22;57473;37.508;15.080;2023-04-15T13:38:53;17.80;64.00
70107;DHT22;57473;37.508;15.080;2023-04-15T13:41:20;17.40;64.70
70107;DHT22;57473;37.508;15.080;2023-04-15T13:43:51;17.20;66.70
70107;DHT22;57473;37.508;15.080;2023-04-15T13:46:18;16.90;70.70
70107;DHT22;57473;37.508;15.080;2023-04-15T13:48:45;16.60;74.00
70107;DHT22;57473;37.508;15.080;2023-04-15T13:51:13;16.50;76.80
70107;DHT22;57473;37.508;15.080;2023-04-15T13:53:40;17.10;76.00
70107;DHT22;57473;37.508;15.080;2023-04-15T13:56:07;17.40;73.20
70107;DHT22;57473;37.508;15.080;2023-04-15T13:58:36;17.50;72.10
70107;DHT22;57473;37.508;15.080;2023-04-15T14:01:04;17.40;71.80
70107;DHT22;57473;37.508;15.080;2023-04-15T14:03:36;17.40;69.50
70107;DHT22;57473;37.508;15.080;2023-04-15T14:06:05;17.40;69.10
70107;DHT22;57473;37.508;15.080;2023-04-15T14:08:32;17.10;70.70
70107;DHT22;57473;37.508;15.080;2023-04-15T14:10:59;16.70;74.40
70107;DHT22;57473;37.508;15.080;2023-04-15T14:13:27;16.50;74.10
70107;DHT22;57473;37.508;15.080;2023-04-15T14:15:55;16.40;75.30
70107;DHT22;57473;37.508;15.080;2023-04-15T14:18:23;16.40;75.40
70107;DHT22;57473;37.508;15.080;2023-04-15T14:20:50;16.40;75.50
70107;DHT22;57473;37.508;15.080;2023-04-15T14:23:17;16.60;77.80
70107;DHT22;57473;37.508;15.080;2023-04-15T14:25:45;16.80;71.50
70107;DHT22;57473;37.508;15.080;2023-04-15T14:28:14;17.00;70.40
70107;DHT22;57473;37.508;15.080;2023-04-15T14:30:41;17.10;67.90
70107;DHT22;57473;37.508;15.080;2023-04-15T14:33:09;17.20;69.80
70107;DHT22;57473;37.508;15.080;2023-04-15T14:35:37;17.50;67.40
70107;DHT22;57473;37.508;15.080;2023-04-15T14:38:05;17.80;66.00
70107;DHT22;57473;37.508;15.080;2023-04-15T14:40:37;18.00;64.40
70107;DHT22;57473;37.508;15.080;2023-04-15T14:43:04;18.00;64.10
70107;DHT22;57473;37.508;15.080;2023-04-15T14:45:31;18.10;62.90
70107;DHT22;57473;37.508;15.080;2023-04-15T14:47:59;18.40;61.10
70107;DHT22;57473;37.508;15.080;2023-04-15T14:50:27;18.60;60.10
70107;DHT22;57473;37.508;15.080;2023-04-15T14:52:54;18.90;59.20
70107;DHT22;57473;37.508;15.080;2023-04-15T14:55:22;19.00;58.00
70107;DHT22;57473;37.508;15.080;2023-04-15T14:57:49;19.00;56.30
70107;DHT22;57473;37.508;15.080;2023-04-15T15:00:17;19.00;56.80
70107;DHT22;57473;37.508;15.080;2023-04-15T15:02:44;18.90;57.10
70107;DHT22;57473;37.508;15.080;2023-04-15T15:05:19;18.80;57.30
70107;DHT22;57473;37.508;15.080;2023-04-15T15:07:47;18.80;57.50
70107;DHT22;57473;37.508;15.080;2023-04-15T15:10:14;18.80;56.90
70107;DHT22;57473;37.508;15.080;2023-04-15T15:12:41;18.80;57.50
70107;DHT22;57473;37.508;15.080;2023-04-15T15:15:09;18.90;57.40
70107;DHT22;57473;37.508;15.080;2023-04-15T15:17:54;19.00;57.10
70107;DHT22;57473;37.508;15.080;2023-04-15T15:20:22;19.00;57.10
70107;DHT22;57473;37.508;15.080;2023-04-15T15:22:50;19.10;56.50
70107;DHT22;57473;37.508;15.080;2023-04-15T15:25:17;19.10;55.80
70107;DHT22;57473;37.508;15.080;2023-04-15T15:27:45;19.30;54.20
70107;DHT22;57473;37.508;15.080;2023-04-15T15:30:12;19.30;53.60
70107;DHT22;57473;37.508;15.080;2023-04-15T15:32:41;19.30;55.40
70107;DHT22;57473;37.508;15.080;2023-04-15T15:35:09;19.30;56.10
70107;DHT22;57473;37.508;15.080;2023-04-15T15:37:37;19.20;55.70
70107;DHT22;57473;37.508;15.080;2023-04-15T15:40:05;19.20;53.80
70107;DHT22;57473;37.508;15.080;2023-04-15T15:42:33;19.30;52.30